Time;durP1;ratioP1;P1;durP2;ratioP2;P2;SDS_P1;SDS_P2;PMS_P1;PMS_P2;Temp;Humidity;BMP_temperature;BMP_pressure;BME280_temperature;BME280_humidity;BME280_pressure;Samples;Min_cycle;Max_cycle;Signal;HPM_P1;HPM_P2
2023/10/12 00:02:21;;;;;;;;;;;;;;;9.82;84.91;96043.44;5095865;28;971;-60
2023/10/12 00:04:53;;;;;;;;;;;;;;;9.75;85.15;96047.63;5095954;28;972;-60
2023/10/12 00:07:33;;;;;;;;;;;;;;;9.84;84.88;96036.13;5095336;28;2051;-60
2023/10/12 00:10:18;;;;;;;;;;;;;;;9.86;84.15;96041.34;5095407;28;1016;-60
2023/10/12 00:12:45;;;;;;;;;;;;;;;9.87;84.54;96041.22;5094304;28;1016;-60
2023/10/12 00:17:48;;;;;;;;;;;;;;;9.74;84.47;96029.91;5095253;28;1036;-60
2023/10/12 00:22:58;;;;;;;;;;;;;;;9.71;83.99;96031.03;5095192;28;1480;-60
2023/10/12 00:25:25;;;;;;;;;;;;;;;9.52;84.49;96039.81;5095102;28;1984;-60
2023/10/12 00:27:51;;;;;;;;;;;;;;;9.41;85.20;96039.03;5095140;28;1003;-60
2023/10/12 00:30:17;;;;;;;;;;;;;;;9.30;86.46;96030.13;5095218;28;972;-60
2023/10/12 00:32:43;;;;;;;;;;;;;;;9.42;85.75;96028.22;5095175;28;1038;-60
2023/10/12 00:35:14;;;;;;;;;;;;;;;9.51;85.12;96030.09;5095221;28;968;-60
2023/10/12 00:37:43;;;;;;;;;;;;;;;9.33;85.77;96029.88;5095028;28;972;-60
2023/10/12 00:40:31;;;;;;;;;;;;;;;9.45;85.40;96027.97;5095097;28;1039;-59
2023/10/12 00:43:00;;;;;;;;;;;;;;;9.38;84.72;96030.31;5093625;28;1059;-60
2023/10/12 00:45:29;;;;;;;;;;;;;;;9.42;84.85;96030.88;5094824;28;1977;-60
2023/10/12 00:48:07;;;;;;;;;;;;;;;9.49;84.49;96024.03;5094946;28;991;-60
2023/10/12 00:50:34;;;;;;;;;;;;;;;9.52;84.08;96020.25;5094273;28;1239;-59
2023/10/12 00:53:15;;;;;;;;;;;;;;;9.46;84.21;96021.63;5094650;28;964;-60
2023/10/12 00:55:41;;;;;;;;;;;;;;;9.38;84.38;96013.44;5094551;28;1028;-61
2023/10/12 00:58:10;;;;;;;;;;;;;;;9.25;84.89;96018.16;5094669;28;980;-60
2023/10/12 01:00:50;;;;;;;;;;;;;;;9.34;84.43;96020.03;5094623;28;1031;-60
2023/10/12 01:06:12;;;;;;;;;;;;;;;9.25;85.52;96023.50;5094338;28;2032;-60
2023/10/12 01:08:42;;;;;;;;;;;;;;;9.32;84.83;96016.66;5094538;28;1043;-60
2023/10/12 01:11:18;;;;;;;;;;;;;;;9.35;84.53;96016.38;5094863;28;992;-60
2023/10/12 01:13:49;;;;;;;;;;;;;;;9.11;85.26;96012.19;5094515;28;1035;-60
2023/10/12 01:16:25;;;;;;;;;;;;;;;9.04;85.61;96011.00;5094281;28;1039;-60
2023/10/12 01:19:00;;;;;;;;;;;;;;;9.09;85.32;96007.97;5094453;28;967;-60
2023/10/12 01:21:28;;;;;;;;;;;;;;;9.10;84.65;96005.13;5094028;28;1123;-60
2023/10/12 01:24:00;;;;;;;;;;;;;;;9.04;84.86;96008.34;5094276;28;1046;-60
2023/10/12 01:26:26;;;;;;;;;;;;;;;8.84;85.17;96009.16;5093899;28;1898;-60
2023/10/12 01:28:55;;;;;;;;;;;;;;;8.75;86.07;96005.47;5093936;28;1034;-60
2023/10/12 01:31:28;;;;;;;;;;;;;;;8.93;85.65;96003.06;5094071;28;1039;-60
2023/10/12 01:33:55;;;;;;;;;;;;;;;9.02;85.15;96010.28;5094080;28;975;-60
2023/10/12 01:36:22;;;;;;;;;;;;;;;9.09;85.29;96008.78;5093794;28;1043;-60
2023/10/12 01:38:49;;;;;;;;;;;;;;;9.00;85.37;96009.56;5092596;28;1043;-60
2023/10/12 01:41:25;;;;;;;;;;;;;;;8.87;85.19;96007.09;5093680;28;1211;-60
2023/10/12 01:43:52;;;;;;;;;;;;;;;8.78;85.11;96003.41;5094021;28;951;-60
2023/10/12 01:46:21;;;;;;;;;;;;;;;8.66;85.98;96012.41;5093851;28;1918;-60
2023/10/12 01:48:49;;;;;;;;;;;;;;;8.79;85.55;96013.06;5093005;28;1154;-60
2023/10/12 01:51:24;;;;;;;;;;;;;;;8.63;86.36;96018.00;5093287;28;1224;-60
2023/10/12 01:53:55;;;;;;;;;;;;;;;8.71;86.05;96026.22;5093794;28;1031;-61
2023/10/12 01:56:26;;;;;;;;;;;;;;;8.82;85.81;96014.66;5093441;28;1095;-63
2023/10/12 01:58:52;;;;;;;;;;;;;;;8.84;85.48;96018.03;5093763;28;1019;-63
2023/10/12 02:01:18;;;;;;;;;;;;;;;8.77;85.61;96017.69;5093397;28;1040;-63
2023/10/12 02:03:44;;;;;;;;;;;;;;;8.65;85.71;96015.19;5093468;28;1497;-63
2023/10/12 02:06:14;;;;;;;;;;;;;;;8.48;86.12;96020.13;5093232;28;1909;-63
2023/10/12 02:08:45;;;;;;;;;;;;;;;8.44;86.24;96012.50;5093314;28;1079;-63
2023/10/12 02:11:26;;;;;;;;;;;;;;;8.46;85.80;96015.88;5093595;28;1043;-63
2023/10/12 02:14:00;;;;;;;;;;;;;;;8.57;85.42;96013.19;5093573;28;1026;-62
2023/10/12 02:16:37;;;;;;;;;;;;;;;8.56;85.12;96014.16;5093285;28;1048;-59
2023/10/12 02:19:04;;;;;;;;;;;;;;;8.56;85.15;96019.50;5093348;28;976;-60
2023/10/12 02:21:34;;;;;;;;;;;;;;;8.40;85.83;96011.88;5093513;28;1023;-60
2023/10/12 02:26:38;;;;;;;;;;;;;;;8.46;85.32;96011.44;5093263;28;1930;-60
2023/10/12 02:31:34;;;;;;;;;;;;;;;8.11;86.14;96011.63;5093101;28;1035;-60
2023/10/12 02:34:01;;;;;;;;;;;;;;;8.04;86.80;96010.41;5093449;28;1066;-60
2023/10/12 02:36:28;;;;;;;;;;;;;;;8.25;85.97;96021.13;5092999;28;1126;-60
2023/10/12 02:38:58;;;;;;;;;;;;;;;8.30;85.42;96013.63;5093250;28;981;-60
2023/10/12 02:41:26;;;;;;;;;;;;;;;8.25;85.28;96011.31;5093317;28;979;-60
2023/10/12 02:43:55;;;;;;;;;;;;;;;8.16;85.34;96017.41;5093091;28;1137;-60
2023/10/12 02:46:25;;;;;;;;;;;;;;;8.17;86.13;96011.09;5093245;28;1983;-60
2023/10/12 02:48:51;;;;;;;;;;;;;;;8.20;85.81;96019.69;5093046;28;1141;-60
2023/10/12 02:51:18;;;;;;;;;;;;;;;8.21;85.60;96012.53;5092799;28;1085;-60
2023/10/12 02:53:46;;;;;;;;;;;;;;;8.26;85.31;96014.84;5093255;28;1046;-60
2023/10/12 02:56:12;;;;;;;;;;;;;;;8.23;85.15;96012.41;5093175;28;960;-60
2023/10/12 02:58:44;;;;;;;;;;;;;;;8.31;84.84;96018.81;5091768;28;1322;-60
2023/10/12 03:01:14;;;;;;;;;;;;;;;8.12;84.76;96008.84;5096384;28;1016;-60
2023/10/12 03:03:47;;;;;;;;;;;;;;;8.05;85.52;96012.97;5096632;28;1040;-60
2023/10/12 03:06:30;;;;;;;;;;;;;;;8.14;85.00;96011.38;5096651;28;2017;-60
2023/10/12 03:11:35;;;;;;;;;;;;;;;8.30;85.15;96011.78;5096779;28;1007;-62
2023/10/12 03:14:13;;;;;;;;;;;;;;;8.30;85.72;96009.13;5096456;28;1044;-62
2023/10/12 03:16:43;;;;;;;;;;;;;;;8.27;85.36;96008.53;5096613;28;1140;-62
2023/10/12 03:19:25;;;;;;;;;;;;;;;8.19;85.20;96003.84;5096487;28;1048;-63
2023/10/12 03:21:52;;;;;;;;;;;;;;;8.05;86.14;96001.47;5096392;28;960;-61
2023/10/12 03:24:21;;;;;;;;;;;;;;;8.01;86.44;96007.03;5096539;28;976;-61
2023/10/12 03:29:29;;;;;;;;;;;;;;;8.10;86.22;96008.13;5095844;28;1126;-62
2023/10/12 03:31:57;;;;;;;;;;;;;;;8.23;85.06;96007.94;5096136;28;1014;-61
2023/10/12 03:36:58;;;;;;;;;;;;;;;8.10;85.23;96002.78;5096253;28;948;-63
2023/10/12 03:39:29;;;;;;;;;;;;;;;7.99;85.71;96008.13;5096248;28;960;-60
2023/10/12 03:41:55;;;;;;;;;;;;;;;7.99;85.64;96018.78;5095936;28;1008;-61
2023/10/12 03:46:59;;;;;;;;;;;;;;;7.73;85.76;96007.56;5095703;28;1987;-61
2023/10/12 03:49:32;;;;;;;;;;;;;;;7.71;85.25;96004.19;5095754;28;1254;-62
2023/10/12 03:51:59;;;;;;;;;;;;;;;7.61;85.44;96004.06;5095883;28;976;-59
2023/10/12 03:54:35;;;;;;;;;;;;;;;7.64;85.79;96009.13;5095582;28;1100;-59
2023/10/12 03:57:19;;;;;;;;;;;;;;;7.63;86.00;96007.47;5095662;28;1054;-59
2023/10/12 03:59:59;;;;;;;;;;;;;;;7.66;85.88;96011.69;5082445;28;2921;-59
2023/10/12 04:02:25;;;;;;;;;;;;;;;7.73;85.67;96012.88;5075365;28;937;-59
2023/10/12 04:05:15;;;;;;;;;;;;;;;7.75;86.00;96013.63;5075518;28;1059;-59
2023/10/12 04:13:09;;;;;;;;;;;;;;;7.63;85.61;96020.75;5073393;28;2215;-60
2023/10/12 04:16:09;;;;;;;;;;;;;;;7.58;85.65;96015.78;5075110;28;1011;-61
2023/10/12 04:18:28;;;;;;;;;;;;;;;7.62;85.46;96021.72;5074595;28;1224;-59
2023/10/12 04:20:57;;;;;;;;;;;;;;;7.58;85.53;96021.09;5075161;28;1016;-61
2023/10/12 04:29:13;;;;;;;;;;;;;;;7.33;86.58;96019.53;5075123;28;1055;-60
2023/10/12 04:34:05;;;;;;;;;;;;;;;7.32;87.34;96022.31;5074697;28;1116;-60
2023/10/12 04:36:44;;;;;;;;;;;;;;;7.56;87.53;96023.06;5074721;28;1067;-60
2023/10/12 04:39:20;;;;;;;;;;;;;;;7.63;86.52;96028.75;5074534;28;1086;-60
2023/10/12 04:46:51;;;;;;;;;;;;;;;7.78;85.82;96030.19;5074776;28;1917;-60
2023/10/12 04:51:50;;;;;;;;;;;;;;;7.59;85.38;96028.13;5094643;28;940;-59
2023/10/12 04:54:17;;;;;;;;;;;;;;;7.57;85.30;96029.22;5094908;28;1031;-62
2023/10/12 04:56:56;;;;;;;;;;;;;;;7.54;85.22;96032.97;5094694;28;1043;-61
2023/10/12 04:59:27;;;;;;;;;;;;;;;7.55;85.49;96036.47;5094531;28;1040;-62
2023/10/12 05:07:27;;;;;;;;;;;;;;;7.71;86.15;96036.13;5094262;28;1984;-59
2023/10/12 05:09:54;;;;;;;;;;;;;;;7.76;86.63;96036.63;5094692;28;1038;-58
2023/10/12 05:12:23;;;;;;;;;;;;;;;7.78;86.93;96043.50;5094475;28;991;-57
2023/10/12 05:14:55;;;;;;;;;;;;;;;7.72;86.61;96045.78;5094473;28;952;-59
2023/10/12 05:17:24;;;;;;;;;;;;;;;7.65;86.53;96041.94;5094351;28;1042;-59
2023/10/12 05:19:52;;;;;;;;;;;;;;;7.72;86.17;96044.00;5094191;28;1115;-59
2023/10/12 05:22:19;;;;;;;;;;;;;;;8.01;85.29;96052.31;5094159;28;1074;-59
2023/10/12 05:24:46;;;;;;;;;;;;;;;8.25;85.20;96050.44;5093578;28;1019;-59
2023/10/12 05:27:33;;;;;;;;;;;;;;;8.41;85.04;96053.56;5093740;28;1994;-59
2023/10/12 05:30:05;;;;;;;;;;;;;;;8.46;85.27;96048.75;5094040;28;1024;-59
2023/10/12 05:32:42;;;;;;;;;;;;;;;8.69;85.24;96060.16;5094250;28;971;-59
2023/10/12 05:35:15;;;;;;;;;;;;;;;8.99;84.38;96058.56;5093907;28;1048;-59
2023/10/12 05:37:48;;;;;;;;;;;;;;;9.24;84.15;96065.34;5093883;28;1051;-59
2023/10/12 05:40:15;;;;;;;;;;;;;;;9.76;82.08;96055.50;5093731;28;1024;-59
2023/10/12 05:42:45;;;;;;;;;;;;;;;10.73;77.56;96056.75;5093778;28;1008;-59
2023/10/12 05:45:30;;;;;;;;;;;;;;;12.10;72.46;96054.66;5093772;28;976;-60
2023/10/12 05:47:57;;;;;;;;;;;;;;;13.03;68.40;96068.78;5093795;28;963;-59
2023/10/12 05:50:28;;;;;;;;;;;;;;;14.02;64.66;96069.53;5093472;28;1309;-60
2023/10/12 05:52:59;;;;;;;;;;;;;;;14.85;61.84;96071.50;5093855;28;964;-60
2023/10/12 05:55:26;;;;;;;;;;;;;;;15.00;61.46;96075.25;5093943;28;956;-60
2023/10/12 05:57:55;;;;;;;;;;;;;;;15.78;58.88;96081.16;5093609;28;1041;-59
2023/10/12 06:00:36;;;;;;;;;;;;;;;17.24;53.44;96090.72;5093517;28;1999;-59
2023/10/12 06:03:04;;;;;;;;;;;;;;;18.95;49.14;96095.44;5093594;28;1110;-60
2023/10/12 06:05:31;;;;;;;;;;;;;;;20.25;45.12;96102.53;5093435;28;1165;-59
2023/10/12 06:08:00;;;;;;;;;;;;;;;20.84;42.65;96111.25;5093651;28;1060;-60
2023/10/12 06:10:30;;;;;;;;;;;;;;;21.29;42.03;96106.19;5093371;28;1142;-60
2023/10/12 06:12:56;;;;;;;;;;;;;;;22.73;39.05;96112.97;5093399;28;1040;-58
2023/10/12 06:15:28;;;;;;;;;;;;;;;22.61;38.94;96120.97;5093582;28;977;-58
2023/10/12 06:17:55;;;;;;;;;;;;;;;22.84;38.77;96116.91;5093421;28;1045;-57
2023/10/12 06:23:08;;;;;;;;;;;;;;;21.78;39.96;96115.13;5093444;28;1099;-58
2023/10/12 06:25:37;;;;;;;;;;;;;;;21.67;40.38;96111.13;5093251;28;1988;-58
2023/10/12 06:28:14;;;;;;;;;;;;;;;20.33;42.90;96090.66;5093505;28;968;-58
2023/10/12 06:30:43;;;;;;;;;;;;;;;18.79;46.58;96085.63;5092404;28;1031;-58
2023/10/12 06:33:13;;;;;;;;;;;;;;;17.30;51.78;96071.94;5093338;28;1051;-58
2023/10/12 06:35:58;;;;;;;;;;;;;;;15.99;55.46;96056.34;5095740;28;972;-58
2023/10/12 06:38:47;;;;;;;;;;;;;;;15.09;59.18;96045.66;5097183;28;1040;-58
2023/10/12 06:41:58;;;;;;;;;;;;;;;15.10;60.60;96053.56;5097197;28;1021;-57
2023/10/12 06:46:57;;;;;;;;;;;;;;;15.44;60.08;96066.00;5097043;28;1906;-57
2023/10/12 06:49:28;;;;;;;;;;;;;;;15.39;60.86;96063.81;5096745;28;1212;-58
2023/10/12 06:52:00;;;;;;;;;;;;;;;15.25;61.06;96077.13;5097159;28;1448;-58
2023/10/12 07:00:17;;;;;;;;;;;;;;;15.61;60.65;96072.22;5097066;28;1586;-58
2023/10/12 07:02:44;;;;;;;;;;;;;;;15.73;60.16;96070.03;5097045;28;1460;-57
2023/10/12 07:05:20;;;;;;;;;;;;;;;15.85;61.09;96063.31;5096779;28;1543;-57
2023/10/12 07:07:52;;;;;;;;;;;;;;;15.70;60.29;96070.38;5096508;28;2003;-57
2023/10/12 07:10:28;;;;;;;;;;;;;;;15.84;59.45;96072.44;5096954;28;1412;-57
2023/10/12 07:13:00;;;;;;;;;;;;;;;16.16;59.08;96059.84;5096780;28;1502;-58
2023/10/12 07:15:32;;;;;;;;;;;;;;;16.10;59.95;96060.53;5096725;28;1914;-57
2023/10/12 07:18:08;;;;;;;;;;;;;;;16.08;60.96;96067.97;5096678;28;1515;-58
2023/10/12 07:20:41;;;;;;;;;;;;;;;16.26;59.26;96070.44;5096715;28;1423;-58
2023/10/12 07:23:15;;;;;;;;;;;;;;;16.39;58.99;96063.50;5096693;28;948;-59
2023/10/12 07:25:49;;;;;;;;;;;;;;;16.61;59.08;96063.72;5096387;28;1987;-59
2023/10/12 07:28:32;;;;;;;;;;;;;;;16.78;58.05;96061.78;5096005;28;1558;-60
2023/10/12 07:39:14;;;;;;;;;;;;;;;17.37;55.99;96055.81;5096176;28;1865;-57
2023/10/12 07:42:00;;;;;;;;;;;;;;;17.30;56.06;96068.38;5096206;28;1471;-58
2023/10/12 07:44:54;;;;;;;;;;;;;;;17.38;56.74;96062.94;5096106;28;1893;-58
2023/10/12 07:47:40;;;;;;;;;;;;;;;17.51;57.42;96059.59;5092842;28;2917;-57
2023/10/12 07:50:25;;;;;;;;;;;;;;;17.72;56.58;96057.03;5085636;28;2614;-57
2023/10/12 07:53:07;;;;;;;;;;;;;;;17.98;55.63;96054.97;5075702;28;1538;-57
2023/10/12 07:55:43;;;;;;;;;;;;;;;17.90;55.52;96050.47;5074596;28;1483;-57
2023/10/12 07:58:18;;;;;;;;;;;;;;;18.09;54.81;96052.63;5075353;28;1207;-57
2023/10/12 08:01:19;;;;;;;;;;;;;;;18.31;54.14;96041.91;5076868;28;2887;-58
2023/10/12 08:03:50;;;;;;;;;;;;;;;18.45;53.88;96046.47;5075129;28;1544;-58
2023/10/12 08:06:42;;;;;;;;;;;;;;;18.63;53.67;96042.50;5075442;28;1965;-58
2023/10/12 08:11:58;;;;;;;;;;;;;;;19.11;53.65;96032.88;5074999;28;1542;-58
2023/10/12 08:20:53;;;;;;;;;;;;;;;19.54;51.72;96018.47;5074955;28;1159;-58
2023/10/12 08:22:57;;;;;;;;;;;;;;;19.37;53.35;96017.06;5074836;28;1082;-58
2023/10/12 08:25:38;;;;;;;;;;;;;;;19.44;52.63;96009.81;5074750;28;995;-58
2023/10/12 08:28:18;;;;;;;;;;;;;;;19.37;52.46;96009.78;5075042;28;932;-58
2023/10/12 08:31:01;;;;;;;;;;;;;;;19.51;51.88;95999.88;5074950;28;1228;-58
2023/10/12 08:34:03;;;;;;;;;;;;;;;19.75;52.75;96005.91;5074796;28;1603;-57
2023/10/12 08:36:54;;;;;;;;;;;;;;;19.86;50.80;95998.09;5074748;28;1015;-58
2023/10/12 08:39:37;;;;;;;;;;;;;;;19.94;51.38;95990.81;5074392;28;992;-58
2023/10/12 08:42:36;;;;;;;;;;;;;;;20.00;51.28;95980.00;5074599;28;944;-58
2023/10/12 08:45:15;;;;;;;;;;;;;;;20.19;50.00;95996.59;5074469;28;968;-57
2023/10/12 08:47:53;;;;;;;;;;;;;;;20.13;50.75;95987.38;5074547;28;1906;-58
2023/10/12 08:53:22;;;;;;;;;;;;;;;20.18;50.37;95979.47;5092804;28;2527;-58
2023/10/12 08:55:57;;;;;;;;;;;;;;;20.30;50.20;95974.31;5074760;28;2540;-58
2023/10/12 08:58:40;;;;;;;;;;;;;;;20.12;50.56;95963.97;5074265;28;929;-58
2023/10/12 09:01:23;;;;;;;;;;;;;;;20.54;49.56;95961.22;5074262;28;1056;-58
2023/10/12 09:04:11;;;;;;;;;;;;;;;20.71;48.76;95962.56;5074383;28;945;-58
2023/10/12 09:10:36;;;;;;;;;;;;;;;20.52;49.38;95963.31;5073998;28;1431;-58
2023/10/12 09:12:19;;;;;;;;;;;;;;;20.70;49.29;95955.47;5073196;28;1318;-58
2023/10/12 09:14:55;;;;;;;;;;;;;;;20.98;48.37;95959.91;5073767;28;921;-58
2023/10/12 09:17:32;;;;;;;;;;;;;;;21.05;48.70;95949.88;5073973;28;1008;-58
2023/10/12 09:20:59;;;;;;;;;;;;;;;21.18;48.72;95949.91;5073789;28;984;-58
2023/10/12 09:23:12;;;;;;;;;;;;;;;21.41;46.76;95952.19;5073336;28;1056;-58
2023/10/12 09:26:13;;;;;;;;;;;;;;;21.59;47.36;95939.91;5073606;28;1935;-58
2023/10/12 09:36:43;;;;;;;;;;;;;;;21.59;47.05;95913.53;5073731;28;2078;-58
2023/10/12 09:39:24;;;;;;;;;;;;;;;21.60;46.85;95908.91;5073673;28;952;-58
2023/10/12 09:42:13;;;;;;;;;;;;;;;21.82;46.90;95904.06;5073543;28;1024;-58
2023/10/12 09:44:53;;;;;;;;;;;;;;;21.97;46.00;95904.63;5073580;28;1983;-58
2023/10/12 09:47:26;;;;;;;;;;;;;;;22.18;45.83;95902.69;5073256;28;1910;-60
2023/10/12 09:50:13;;;;;;;;;;;;;;;22.25;45.73;95889.03;5083777;28;1246;-60
2023/10/12 09:52:57;;;;;;;;;;;;;;;22.35;45.82;95892.16;5093581;28;960;-58
2023/10/12 09:55:33;;;;;;;;;;;;;;;22.47;45.08;95890.41;5093571;28;1004;-60
2023/10/12 09:58:14;;;;;;;;;;;;;;;22.36;45.24;95889.19;5093721;28;943;-64
2023/10/12 10:00:55;;;;;;;;;;;;;;;22.55;45.35;95886.59;5093682;28;1011;-63
2023/10/12 10:03:47;;;;;;;;;;;;;;;22.54;44.72;95876.78;5093550;28;1485;-63
2023/10/12 10:06:37;;;;;;;;;;;;;;;22.48;45.75;95866.72;5093458;28;1910;-62
2023/10/12 10:09:24;;;;;;;;;;;;;;;22.58;45.85;95857.03;5092849;28;968;-62
2023/10/12 10:11:59;;;;;;;;;;;;;;;22.62;45.62;95865.59;5093661;28;1018;-62
2023/10/12 10:14:35;;;;;;;;;;;;;;;22.83;44.97;95856.22;5092304;28;1050;-63
2023/10/12 10:17:14;;;;;;;;;;;;;;;22.82;44.65;95849.09;5093395;28;1024;-63
2023/10/12 10:19:51;;;;;;;;;;;;;;;22.70;45.54;95848.16;5093348;28;989;-62
2023/10/12 10:22:31;;;;;;;;;;;;;;;22.76;45.54;95847.25;5093238;28;983;-62
2023/10/12 10:25:06;;;;;;;;;;;;;;;22.56;45.83;95850.13;5093304;28;967;-63
2023/10/12 10:27:41;;;;;;;;;;;;;;;22.58;45.17;95837.13;5093216;28;1958;-63
2023/10/12 10:30:24;;;;;;;;;;;;;;;22.75;44.94;95834.69;5093462;28;931;-63
2023/10/12 10:33:08;;;;;;;;;;;;;;;22.92;44.28;95824.91;5093500;28;1507;-63
2023/10/12 10:35:59;;;;;;;;;;;;;;;22.98;43.96;95828.63;5093347;28;1475;-63
2023/10/12 10:38:34;;;;;;;;;;;;;;;23.19;44.35;95821.97;5093177;28;1620;-63
2023/10/12 10:41:07;;;;;;;;;;;;;;;23.17;44.72;95821.38;5093306;28;1797;-63
2023/10/12 10:43:41;;;;;;;;;;;;;;;23.19;44.86;95813.81;5075865;28;2600;-63
2023/10/12 10:46:16;;;;;;;;;;;;;;;23.24;44.02;95813.13;5071786;28;1914;-65
2023/10/12 10:48:50;;;;;;;;;;;;;;;23.34;44.18;95799.81;5073651;28;1408;-64
2023/10/12 10:51:27;;;;;;;;;;;;;;;23.28;43.84;95798.00;5092742;28;1649;-64
2023/10/12 10:53:59;;;;;;;;;;;;;;;23.27;44.15;95793.56;5093317;28;996;-63
2023/10/12 10:56:38;;;;;;;;;;;;;;;23.27;44.22;95788.94;5092000;28;1580;-63
2023/10/12 10:59:13;;;;;;;;;;;;;;;23.05;44.60;95774.91;5093087;28;1534;-64
2023/10/12 11:01:48;;;;;;;;;;;;;;;23.25;43.82;95774.69;5093182;28;1596;-63
2023/10/12 11:07:17;;;;;;;;;;;;;;;23.19;44.24;95764.69;5092672;28;1906;-63
2023/10/12 11:12:31;;;;;;;;;;;;;;;23.35;43.53;95752.34;5093143;28;1027;-63
2023/10/12 11:15:11;;;;;;;;;;;;;;;23.43;43.65;95743.88;5093091;28;1573;-63
2023/10/12 11:17:56;;;;;;;;;;;;;;;23.46;43.50;95742.59;5091845;28;1486;-64
2023/10/12 11:20:43;;;;;;;;;;;;;;;23.44;43.96;95734.63;5092912;28;1647;-63
2023/10/12 11:23:16;;;;;;;;;;;;;;;23.44;42.62;95737.34;5096069;28;1443;-63
2023/10/12 11:25:48;;;;;;;;;;;;;;;23.45;43.58;95733.56;5096523;28;1914;-63
2023/10/12 11:28:23;;;;;;;;;;;;;;;23.42;42.66;95725.84;5096315;28;1644;-64
2023/10/12 11:31:03;;;;;;;;;;;;;;;23.45;44.41;95716.34;5096385;28;932;-63
2023/10/12 11:33:36;;;;;;;;;;;;;;;23.44;43.34;95715.53;5096484;28;1624;-63
2023/10/12 11:36:17;;;;;;;;;;;;;;;23.51;43.44;95705.38;5095274;28;1491;-61
2023/10/12 11:39:00;;;;;;;;;;;;;;;23.39;43.06;95705.31;5096376;28;1509;-60
2023/10/12 11:41:34;;;;;;;;;;;;;;;23.46;42.52;95699.75;5096140;28;1586;-59
2023/10/12 11:44:07;;;;;;;;;;;;;;;23.49;43.54;95693.03;5096278;28;1497;-60
2023/10/12 11:46:43;;;;;;;;;;;;;;;23.65;43.53;95691.53;5095961;28;1914;-59
2023/10/12 11:49:15;;;;;;;;;;;;;;;23.70;41.79;95700.72;5095171;28;2562;-59
2023/10/12 11:51:50;;;;;;;;;;;;;;;23.61;42.31;95691.16;5093907;28;2868;-62
2023/10/12 11:54:32;;;;;;;;;;;;;;;23.61;42.03;95685.72;5095995;28;1475;-60
2023/10/12 11:57:06;;;;;;;;;;;;;;;23.77;42.80;95676.88;5095878;28;1443;-60
2023/10/12 11:59:38;;;;;;;;;;;;;;;23.81;42.14;95674.56;5095926;28;1361;-58
2023/10/12 12:02:16;;;;;;;;;;;;;;;23.84;42.23;95671.34;5095674;28;960;-58
2023/10/12 12:04:50;;;;;;;;;;;;;;;23.79;42.59;95671.22;5095671;28;1467;-58
2023/10/12 12:07:22;;;;;;;;;;;;;;;23.93;42.78;95658.22;5095341;28;1909;-60
2023/10/12 12:10:00;;;;;;;;;;;;;;;23.80;41.99;95659.22;5095752;28;1543;-59
2023/10/12 12:12:32;;;;;;;;;;;;;;;23.86;42.36;95655.56;5095543;28;1625;-61
2023/10/12 12:15:06;;;;;;;;;;;;;;;23.88;42.73;95650.72;5095632;28;1621;-59
2023/10/12 12:17:38;;;;;;;;;;;;;;;23.94;41.74;95662.59;5095432;28;1694;-59
2023/10/12 12:20:15;;;;;;;;;;;;;;;23.95;41.76;95653.34;5095754;28;1523;-60
2023/10/12 12:22:48;;;;;;;;;;;;;;;24.01;41.47;95652.41;5095369;28;1521;-60
2023/10/12 12:25:31;;;;;;;;;;;;;;;24.01;42.02;95654.31;5095213;28;1651;-59
2023/10/12 12:28:08;;;;;;;;;;;;;;;24.18;41.34;95649.84;5094715;28;1901;-59
2023/10/12 12:30:55;;;;;;;;;;;;;;;24.15;41.63;95647.59;5095337;28;1547;-59
2023/10/12 12:33:27;;;;;;;;;;;;;;;24.20;40.42;95650.44;5094661;28;1566;-60
2023/10/12 12:36:08;;;;;;;;;;;;;;;24.18;40.41;95644.38;5095104;28;1442;-58
2023/10/12 12:41:23;;;;;;;;;;;;;;;24.23;40.42;95630.84;5094967;28;1963;-60
2023/10/12 12:43:58;;;;;;;;;;;;;;;24.29;39.63;95634.53;5094972;28;1466;-59
2023/10/12 12:46:32;;;;;;;;;;;;;;;24.23;39.86;95627.31;5093598;28;2000;-60
2023/10/12 12:49:06;;;;;;;;;;;;;;;24.17;39.58;95631.81;5094850;28;1546;-60
2023/10/12 12:51:39;;;;;;;;;;;;;;;24.16;40.17;95628.22;5094888;28;1652;-58
2023/10/12 12:54:11;;;;;;;;;;;;;;;24.24;39.75;95621.56;5094765;28;1446;-60
2023/10/12 12:56:42;;;;;;;;;;;;;;;24.14;39.24;95629.53;5094752;28;1471;-60
2023/10/12 12:59:15;;;;;;;;;;;;;;;24.07;39.27;95626.88;5094727;28;1505;-59
2023/10/12 13:01:47;;;;;;;;;;;;;;;24.05;39.71;95612.63;5093589;28;1577;-59
2023/10/12 13:04:19;;;;;;;;;;;;;;;24.18;39.17;95614.31;5094588;28;1505;-61
2023/10/12 13:06:52;;;;;;;;;;;;;;;24.21;38.71;95613.88;5093308;28;1918;-61
2023/10/12 13:09:28;;;;;;;;;;;;;;;24.20;39.94;95606.72;5085522;28;2865;-60
2023/10/12 13:12:00;;;;;;;;;;;;;;;24.19;39.15;95609.69;5074314;28;1502;-59
2023/10/12 13:14:32;;;;;;;;;;;;;;;24.24;39.54;95607.09;5074110;28;1494;-60
2023/10/12 13:17:08;;;;;;;;;;;;;;;24.28;39.76;95603.66;5073778;28;2166;-62
2023/10/12 13:19:44;;;;;;;;;;;;;;;24.26;39.42;95597.56;5073982;28;1611;-58
2023/10/12 13:22:19;;;;;;;;;;;;;;;24.31;38.82;95600.44;5074128;28;941;-60
2023/10/12 13:24:50;;;;;;;;;;;;;;;24.41;39.45;95596.28;5073964;28;1553;-60
2023/10/12 13:27:23;;;;;;;;;;;;;;;24.42;39.68;95593.31;5073549;28;1906;-59
2023/10/12 13:30:01;;;;;;;;;;;;;;;24.38;39.91;95585.81;5073859;28;1508;-59
2023/10/12 13:32:36;;;;;;;;;;;;;;;24.34;38.59;95589.06;5073763;28;987;-60
2023/10/12 13:38:02;;;;;;;;;;;;;;;24.35;39.26;95582.50;5073817;28;1439;-60
2023/10/12 13:40:37;;;;;;;;;;;;;;;24.36;39.11;95578.72;5073697;28;1556;-58
2023/10/12 13:43:15;;;;;;;;;;;;;;;24.39;39.81;95580.13;5073705;28;1438;-58
2023/10/12 13:45:42;;;;;;;;;;;;;;;24.34;38.96;95575.38;5073172;28;1025;-60
2023/10/12 13:48:10;;;;;;;;;;;;;;;24.30;38.85;95571.47;5073734;28;1985;-61
2023/10/12 13:50:37;;;;;;;;;;;;;;;24.38;38.97;95573.03;5088912;28;1255;-61
2023/10/12 13:53:05;;;;;;;;;;;;;;;24.42;38.88;95570.66;5093649;28;1028;-61
2023/10/12 13:55:32;;;;;;;;;;;;;;;24.38;38.57;95570.28;5093556;28;1048;-60
2023/10/12 13:58:00;;;;;;;;;;;;;;;24.24;38.21;95566.94;5093660;28;1040;-60
2023/10/12 14:00:26;;;;;;;;;;;;;;;24.17;38.68;95566.25;5093579;28;1087;-61
2023/10/12 14:02:56;;;;;;;;;;;;;;;24.26;38.63;95564.78;5093527;28;1049;-62
2023/10/12 14:05:27;;;;;;;;;;;;;;;24.21;38.63;95556.50;5093482;28;1067;-60
2023/10/12 14:07:54;;;;;;;;;;;;;;;24.11;38.26;95564.44;5093717;28;1913;-61
2023/10/12 14:10:23;;;;;;;;;;;;;;;24.11;38.01;95556.22;5091947;28;2777;-61
2023/10/12 14:12:55;;;;;;;;;;;;;;;24.21;38.80;95558.38;5093625;28;1020;-61
2023/10/12 14:15:21;;;;;;;;;;;;;;;24.24;38.71;95556.00;5093343;28;1060;-63
2023/10/12 14:17:54;;;;;;;;;;;;;;;24.22;38.41;95555.41;5093557;28;976;-62
2023/10/12 14:20:28;;;;;;;;;;;;;;;24.24;38.07;95558.75;5092156;28;979;-64
2023/10/12 14:22:58;;;;;;;;;;;;;;;24.24;38.39;95552.44;5093413;28;1055;-61
2023/10/12 14:25:30;;;;;;;;;;;;;;;24.14;38.56;95553.03;5093204;28;1183;-62
2023/10/12 14:27:59;;;;;;;;;;;;;;;24.21;38.61;95553.75;5093526;28;1914;-63
2023/10/12 14:30:29;;;;;;;;;;;;;;;24.26;38.42;95548.41;5093530;28;988;-63
2023/10/12 14:32:56;;;;;;;;;;;;;;;24.25;38.93;95548.66;5093230;28;979;-61
2023/10/12 14:35:25;;;;;;;;;;;;;;;24.19;38.96;95542.25;5093192;28;1541;-61
2023/10/12 14:37:55;;;;;;;;;;;;;;;24.09;39.13;95550.19;5092401;28;1046;-61
2023/10/12 14:40:21;;;;;;;;;;;;;;;24.10;39.20;95541.75;5093217;28;973;-61
2023/10/12 14:42:47;;;;;;;;;;;;;;;24.02;40.61;95535.78;5093228;28;1035;-61
2023/10/12 14:45:16;;;;;;;;;;;;;;;23.90;41.37;95533.06;5093107;28;961;-62
2023/10/12 14:47:44;;;;;;;;;;;;;;;23.85;41.76;95531.06;5093366;28;1914;-64
2023/10/12 14:50:16;;;;;;;;;;;;;;;23.79;41.91;95532.00;5092833;28;1198;-65
2023/10/12 14:52:42;;;;;;;;;;;;;;;23.73;42.45;95519.22;5093113;28;1091;-61
2023/10/12 14:55:12;;;;;;;;;;;;;;;23.57;42.53;95521.56;5092043;28;996;-61
2023/10/12 14:57:38;;;;;;;;;;;;;;;23.43;43.38;95513.81;5097245;28;972;-61
2023/10/12 15:00:09;;;;;;;;;;;;;;;23.27;44.12;95515.31;5096976;28;1314;-61
2023/10/12 15:02:36;;;;;;;;;;;;;;;22.94;44.42;95514.69;5097248;28;1000;-61
2023/10/12 15:05:05;;;;;;;;;;;;;;;22.84;44.75;95510.84;5097015;28;968;-62
2023/10/12 15:07:37;;;;;;;;;;;;;;;22.70;45.67;95510.19;5096936;28;1989;-62
2023/10/12 15:10:05;;;;;;;;;;;;;;;22.51;46.18;95512.91;5095907;28;956;-60
2023/10/12 15:12:34;;;;;;;;;;;;;;;22.27;46.72;95506.47;5096865;28;1047;-60
2023/10/12 15:15:01;;;;;;;;;;;;;;;22.03;47.20;95503.53;5096876;28;1058;-60
2023/10/12 15:17:27;;;;;;;;;;;;;;;21.83;47.60;95501.00;5096462;28;984;-63
2023/10/12 15:19:53;;;;;;;;;;;;;;;21.65;48.08;95503.66;5095488;28;960;-60
2023/10/12 15:22:23;;;;;;;;;;;;;;;21.34;49.14;95502.63;5096535;28;977;-60